Time;durP1;ratioP1;P1;durP2;ratioP2;P2;SDS_P1;SDS_P2;PMS_P1;PMS_P2;Temp;Humidity;BMP_temperature;BMP_pressure;BME280_temperature;BME280_humidity;BME280_pressure;Samples;Min_cycle;Max_cycle;Signal;HPM_P1;HPM_P2
2023/08/15 00:00:16;;;;;;;3.97;2.70;;;;;;;-145.14;100.00;70583.66;5005526;28;20555;-72
2023/08/15 00:02:41;;;;;;;4.03;2.57;;;;;;;-145.14;100.00;70583.66;5005706;28;20283;-71
2023/08/15 00:05:07;;;;;;;4.50;2.40;;;;;;;-145.14;100.00;70583.66;5005843;28;21375;-72
2023/08/15 00:07:32;;;;;;;3.67;2.10;;;;;;;-145.14;100.00;70583.66;5007707;28;20208;-72
2023/08/15 00:09:58;;;;;;;4.57;3.00;;;;;;;-145.14;100.00;70583.66;5009084;28;20752;-72
2023/08/15 00:12:23;;;;;;;5.80;2.63;;;;;;;-145.14;100.00;70583.66;5010798;28;20530;-72
2023/08/15 00:14:49;;;;;;;4.40;2.67;;;;;;;-145.14;100.00;70583.66;5006420;28;20185;-72
2023/08/15 00:17:15;;;;;;;5.37;2.87;;;;;;;-145.14;100.00;70583.66;5007692;28;20219;-72
2023/08/15 00:19:40;;;;;;;5.70;2.70;;;;;;;-145.14;100.00;70583.66;5009122;28;20176;-72
2023/08/15 00:22:06;;;;;;;4.07;2.60;;;;;;;-145.14;100.00;70583.66;5007351;28;20193;-72
2023/08/15 00:24:32;;;;;;;5.10;2.97;;;;;;;-145.14;100.00;70583.66;5005463;28;20606;-72
2023/08/15 00:26:57;;;;;;;4.50;2.67;;;;;;;-145.14;100.00;70583.66;5007977;28;20228;-72
2023/08/15 00:29:22;;;;;;;6.37;2.90;;;;;;;-145.14;100.00;70583.66;5014628;28;20244;-73
2023/08/15 00:31:48;;;;;;;4.70;2.83;;;;;;;-145.14;100.00;70583.66;5007886;28;20207;-73
2023/08/15 00:34:13;;;;;;;3.13;2.33;;;;;;;-145.14;100.00;70583.66;5014764;28;20192;-72
2023/08/15 00:36:39;;;;;;;8.80;3.33;;;;;;;-145.14;100.00;70583.66;5005752;28;20360;-73
2023/08/15 00:39:04;;;;;;;4.47;3.00;;;;;;;-145.14;100.00;70583.66;5006246;28;20192;-72
2023/08/15 00:41:30;;;;;;;4.70;3.20;;;;;;;-145.14;100.00;70583.66;5006990;28;20205;-72
2023/08/15 00:43:56;;;;;;;4.00;2.70;;;;;;;-145.14;100.00;70583.66;5007970;28;20200;-72
2023/08/15 00:46:22;;;;;;;6.60;2.97;;;;;;;-145.14;100.00;70583.66;5009318;28;20219;-73
2023/08/15 00:48:49;;;;;;;5.40;2.70;;;;;;;-145.14;100.00;70583.66;5009677;28;20562;-72
2023/08/15 00:51:16;;;;;;;4.90;2.30;;;;;;;-145.14;100.00;70583.66;5005917;28;20578;-73
2023/08/15 00:53:42;;;;;;;4.20;2.60;;;;;;;-145.14;100.00;70583.66;5012177;28;20482;-73
2023/08/15 00:56:09;;;;;;;4.57;2.17;;;;;;;-145.14;100.00;70583.66;5007186;28;20846;-73
2023/08/15 00:58:35;;;;;;;5.20;3.00;;;;;;;-145.14;100.00;70583.66;5008711;28;20792;-73
2023/08/15 01:01:01;;;;;;;5.43;2.90;;;;;;;-145.14;100.00;70583.66;5008337;28;20482;-72
2023/08/15 01:03:27;;;;;;;5.87;3.30;;;;;;;-145.14;100.00;70583.66;5008092;28;20193;-72
2023/08/15 01:05:53;;;;;;;5.87;2.80;;;;;;;-145.14;100.00;70583.66;5008599;28;20999;-73
2023/08/15 01:08:18;;;;;;;4.80;2.60;;;;;;;-145.14;100.00;70583.66;5017468;28;20549;-73
2023/08/15 01:10:45;;;;;;;4.73;3.00;;;;;;;-145.14;100.00;70583.66;5009821;28;20438;-72
2023/08/15 01:13:29;;;;;;;5.07;2.50;;;;;;;-145.14;100.00;70583.66;5009586;28;20184;-72
2023/08/15 01:15:54;;;;;;;3.93;2.63;;;;;;;-145.14;100.00;70583.66;5016469;28;20482;-72
2023/08/15 01:18:34;;;;;;;5.20;2.80;;;;;;;-145.14;100.00;70583.66;5004185;28;20597;-72
2023/08/15 01:21:02;;;;;;;4.50;2.63;;;;;;;-145.14;100.00;70583.66;5007431;28;20196;-72
2023/08/15 01:23:41;;;;;;;7.40;3.90;;;;;;;-145.14;100.00;70583.66;5004972;28;20555;-72
2023/08/15 01:26:07;;;;;;;6.10;3.50;;;;;;;-145.14;100.00;70583.66;5009737;28;20450;-72
2023/08/15 01:28:32;;;;;;;5.43;3.50;;;;;;;-145.14;100.00;70583.66;5004535;28;20490;-72
2023/08/15 01:31:14;;;;;;;6.17;3.40;;;;;;;-145.14;100.00;70583.66;5010026;28;20563;-72
2023/08/15 01:33:42;;;;;;;5.40;3.40;;;;;;;-145.14;100.00;70583.66;5009351;28;20239;-72
2023/08/15 01:36:24;;;;;;;6.33;3.23;;;;;;;-145.14;100.00;70583.66;5011259;28;20749;-72
2023/08/15 01:38:54;;;;;;;6.23;3.50;;;;;;;-145.14;100.00;70583.66;5004809;28;20443;-72
2023/08/15 01:41:23;;;;;;;4.60;2.77;;;;;;;-145.14;100.00;70583.66;5003429;28;20944;-72
2023/08/15 01:43:51;;;;;;;5.47;3.40;;;;;;;-145.14;100.00;70583.66;5005737;28;20467;-72
2023/08/15 01:46:18;;;;;;;6.97;3.77;;;;;;;-145.14;100.00;70583.66;5006670;28;20522;-72
2023/08/15 01:48:43;;;;;;;5.57;3.33;;;;;;;-145.14;100.00;70583.66;5007982;28;20563;-72
2023/08/15 01:51:09;;;;;;;4.37;3.37;;;;;;;-145.14;100.00;70583.66;5006757;28;21209;-72
2023/08/15 01:53:36;;;;;;;5.90;3.10;;;;;;;-145.14;100.00;70583.66;5005785;28;20197;-72
2023/08/15 01:56:02;;;;;;;4.97;3.50;;;;;;;-145.14;100.00;70583.66;5007845;28;20462;-72
2023/08/15 01:58:27;;;;;;;5.23;3.03;;;;;;;-145.14;100.00;70583.66;5013591;28;20443;-72
2023/08/15 02:00:53;;;;;;;7.23;4.07;;;;;;;-145.14;100.00;70583.66;5007439;28;20288;-72
2023/08/15 02:03:18;;;;;;;8.27;3.90;;;;;;;-145.14;100.00;70583.66;5010483;28;20188;-72
2023/08/15 02:05:44;;;;;;;6.35;3.90;;;;;;;-145.14;100.00;70583.66;5009578;28;20193;-72
2023/08/15 02:08:09;;;;;;;7.07;3.63;;;;;;;-145.14;100.00;70583.66;5007777;28;20231;-72
2023/08/15 02:10:35;;;;;;;8.40;4.77;;;;;;;-145.14;100.00;70583.66;5007568;28;20224;-72
2023/08/15 02:13:00;;;;;;;5.30;3.93;;;;;;;-145.14;100.00;70583.66;5004695;28;20227;-72
2023/08/15 02:15:26;;;;;;;5.43;3.70;;;;;;;-145.14;100.00;70583.66;5005592;28;20220;-73
2023/08/15 02:17:51;;;;;;;7.33;4.43;;;;;;;-145.14;100.00;70583.66;5008116;28;20299;-73
2023/08/15 02:20:16;;;;;;;5.30;4.20;;;;;;;-145.14;100.00;70583.66;5009412;28;20205;-72
2023/08/15 02:22:42;;;;;;;5.97;4.10;;;;;;;-145.14;100.00;70583.66;5009143;28;20222;-72
2023/08/15 02:25:08;;;;;;;5.53;3.60;;;;;;;-145.14;100.00;70583.66;5009218;28;20212;-72
2023/08/15 02:27:33;;;;;;;6.20;3.77;;;;;;;-145.14;100.00;70583.66;5007480;28;20234;-72
2023/08/15 02:29:58;;;;;;;5.80;3.80;;;;;;;-145.14;100.00;70583.66;5005412;28;20224;-72
2023/08/15 02:32:24;;;;;;;5.80;3.97;;;;;;;-145.14;100.00;70583.66;5004552;28;20560;-72
2023/08/15 02:34:49;;;;;;;6.27;3.50;;;;;;;-145.14;100.00;70583.66;5007230;28;20196;-72
2023/08/15 02:37:15;;;;;;;7.37;4.23;;;;;;;-145.14;100.00;70583.66;5005596;28;20273;-72
2023/08/15 02:39:41;;;;;;;6.03;4.10;;;;;;;-145.14;100.00;70583.66;5008501;28;20339;-72
2023/08/15 02:42:06;;;;;;;6.37;4.17;;;;;;;-145.14;100.00;70583.66;5010039;28;20451;-72
2023/08/15 02:44:33;;;;;;;6.10;4.03;;;;;;;-145.14;100.00;70583.66;5007805;28;20197;-72
2023/08/15 02:46:58;;;;;;;6.00;4.10;;;;;;;-145.14;100.00;70583.66;5012039;28;20208;-72
2023/08/15 02:49:24;;;;;;;6.97;4.00;;;;;;;-145.14;100.00;70583.66;5009155;28;20471;-72
2023/08/15 02:51:49;;;;;;;6.37;3.90;;;;;;;-145.14;100.00;70583.66;5011153;28;20551;-73
2023/08/15 02:54:15;;;;;;;8.17;5.13;;;;;;;-145.14;100.00;70583.66;5009223;28;20196;-72
2023/08/15 02:56:40;;;;;;;5.83;3.97;;;;;;;-145.14;100.00;70583.66;5008456;28;20211;-72
2023/08/15 02:59:05;;;;;;;6.50;4.00;;;;;;;-145.14;100.00;70583.66;5010548;28;20642;-72
2023/08/15 03:01:32;;;;;;;6.90;4.20;;;;;;;-145.14;100.00;70583.66;5027371;28;20189;-72
2023/08/15 03:03:58;;;;;;;5.87;3.97;;;;;;;-145.14;100.00;70583.66;5013712;28;20192;-72
2023/08/15 03:06:23;;;;;;;8.73;4.70;;;;;;;-145.14;100.00;70583.66;5012953;28;20466;-72
2023/08/15 03:08:49;;;;;;;5.73;4.47;;;;;;;-145.14;100.00;70583.66;5012232;28;20468;-71
2023/08/15 03:11:14;;;;;;;7.97;5.03;;;;;;;-145.14;100.00;70583.66;5009440;28;20661;-72
2023/08/15 03:13:40;;;;;;;7.53;4.20;;;;;;;-145.14;100.00;70583.66;5014045;28;20618;-72
2023/08/15 03:16:05;;;;;;;5.90;4.17;;;;;;;-145.14;100.00;70583.66;5011170;28;20596;-72
2023/08/15 03:18:31;;;;;;;8.77;3.67;;;;;;;-145.14;100.00;70583.66;5012379;28;20319;-72
2023/08/15 03:20:57;;;;;;;5.30;4.30;;;;;;;-145.14;100.00;70583.66;5013676;28;20205;-72
2023/08/15 03:23:23;;;;;;;7.70;4.50;;;;;;;-145.14;100.00;70583.66;5014661;28;20243;-72
2023/08/15 03:25:58;;;;;;;7.83;4.03;;;;;;;-145.14;100.00;70583.66;5011546;28;20435;-72
2023/08/15 03:28:23;;;;;;;5.90;4.57;;;;;;;-145.14;100.00;70583.66;5015629;28;20475;-72
2023/08/15 03:30:49;;;;;;;7.00;4.53;;;;;;;-145.14;100.00;70583.66;5008707;28;20516;-72
2023/08/15 03:33:15;;;;;;;6.13;4.60;;;;;;;-145.14;100.00;70583.66;5009463;28;20181;-72
2023/08/15 03:35:48;;;;;;;6.60;4.10;;;;;;;-145.14;100.00;70583.66;5010540;28;20212;-72
2023/08/15 03:38:16;;;;;;;6.47;4.23;;;;;;;-145.14;100.00;70583.66;5009888;28;20455;-72
2023/08/15 03:40:42;;;;;;;6.27;3.90;;;;;;;-145.14;100.00;70583.66;5015635;28;20444;-72
2023/08/15 03:43:08;;;;;;;6.07;4.00;;;;;;;-145.14;100.00;70583.66;5006468;28;20473;-72
2023/08/15 03:45:33;;;;;;;7.20;4.67;;;;;;;-145.14;100.00;70583.66;5014732;28;20440;-72
2023/08/15 03:47:58;;;;;;;8.63;5.40;;;;;;;-145.14;100.00;70583.66;5010594;28;20208;-72
2023/08/15 03:50:24;;;;;;;7.57;4.40;;;;;;;-145.14;100.00;70583.66;5011930;28;20719;-72
2023/08/15 03:52:49;;;;;;;6.70;5.27;;;;;;;-145.14;100.00;70583.66;5010497;28;20189;-73
2023/08/15 03:55:15;;;;;;;5.80;4.47;;;;;;;-145.14;100.00;70583.66;5012319;28;20224;-73
2023/08/15 03:57:40;;;;;;;7.70;4.90;;;;;;;-145.14;100.00;70583.66;5010039;28;20334;-72
2023/08/15 04:00:08;;;;;;;7.03;4.00;;;;;;;-145.14;100.00;70583.66;5012161;28;20220;-73
2023/08/15 04:02:34;;;;;;;7.00;5.00;;;;;;;-145.14;100.00;70583.66;5011100;28;20200;-73
2023/08/15 04:04:59;;;;;;;9.13;5.27;;;;;;;-145.14;100.00;70583.66;5011453;28;20439;-73
2023/08/15 04:07:25;;;;;;;8.13;4.37;;;;;;;-145.14;100.00;70583.66;5013599;28;20303;-72
2023/08/15 04:09:50;;;;;;;7.37;4.93;;;;;;;-145.14;100.00;70583.66;5010879;28;20911;-73
2023/08/15 04:12:16;;;;;;;6.90;4.87;;;;;;;-145.14;100.00;70583.66;5008726;28;20656;-72
2023/08/15 04:14:41;;;;;;;6.10;4.53;;;;;;;-145.14;100.00;70583.66;5007429;28;20192;-72
2023/08/15 04:17:07;;;;;;;8.20;5.03;;;;;;;-145.14;100.00;70583.66;5009766;28;20213;-73
2023/08/15 04:19:32;;;;;;;10.70;5.60;;;;;;;-145.14;100.00;70583.66;5008396;28;20215;-73
2023/08/15 04:21:58;;;;;;;9.73;5.10;;;;;;;-145.14;100.00;70583.66;5010293;28;20193;-72
2023/08/15 04:24:23;;;;;;;7.97;5.63;;;;;;;-145.14;100.00;70583.66;5010255;28;20205;-72
2023/08/15 04:26:49;;;;;;;6.57;4.77;;;;;;;-145.14;100.00;70583.66;5010640;28;20236;-72
2023/08/15 04:29:14;;;;;;;7.93;5.37;;;;;;;-145.14;100.00;70583.66;5011180;28;20651;-72
2023/08/15 04:31:41;;;;;;;9.90;5.47;;;;;;;-145.14;100.00;70583.66;5013274;28;20577;-72
2023/08/15 04:34:07;;;;;;;7.43;4.60;;;;;;;-145.14;100.00;70583.66;5014864;28;20196;-72
2023/08/15 04:36:33;;;;;;;8.60;5.33;;;;;;;-145.14;100.00;70583.66;5005467;28;20471;-72
2023/08/15 04:38:58;;;;;;;9.10;6.00;;;;;;;-145.14;100.00;70583.66;5010839;28;20435;-73
2023/08/15 04:41:24;;;;;;;9.47;5.80;;;;;;;-145.14;100.00;70583.66;5012202;28;20192;-72
2023/08/15 04:43:49;;;;;;;11.80;6.07;;;;;;;-145.14;100.00;70583.66;5004878;28;20192;-72
2023/08/15 04:46:14;;;;;;;6.83;5.60;;;;;;;-145.14;100.00;70583.66;5005550;28;21380;-73
2023/08/15 04:48:40;;;;;;;11.17;6.77;;;;;;;-145.14;100.00;70583.66;5002949;28;20208;-72
2023/08/15 04:51:05;;;;;;;9.73;6.70;;;;;;;-145.14;100.00;70583.66;5009058;28;20193;-72
2023/08/15 04:53:31;;;;;;;12.50;6.70;;;;;;;-145.14;100.00;70583.66;5003158;28;20592;-72
2023/08/15 04:55:56;;;;;;;13.73;6.97;;;;;;;-145.14;100.00;70583.66;5004789;28;20280;-72
2023/08/15 04:58:22;;;;;;;10.13;6.87;;;;;;;-145.14;100.00;70583.66;5006745;28;20268;-72
2023/08/15 05:00:47;;;;;;;10.80;7.30;;;;;;;-145.14;100.00;70583.66;5009002;28;20217;-72
2023/08/15 05:03:13;;;;;;;10.60;7.30;;;;;;;-145.14;100.00;70583.66;5009355;28;20195;-72
2023/08/15 05:05:38;;;;;;;10.63;7.97;;;;;;;-145.14;100.00;70583.66;5009209;28;20640;-72
2023/08/15 05:08:06;;;;;;;7.90;6.47;;;;;;;-145.14;100.00;70583.66;5008200;28;20216;-72
2023/08/15 05:10:31;;;;;;;8.40;6.93;;;;;;;-145.14;100.00;70583.66;5016538;28;20195;-72
2023/08/15 05:12:59;;;;;;;10.70;7.90;;;;;;;-145.14;100.00;70583.66;5009709;28;20443;-72
2023/08/15 05:15:25;;;;;;;12.20;8.13;;;;;;;-145.14;100.00;70583.66;5009830;28;20197;-72
2023/08/15 05:17:50;;;;;;;12.47;9.30;;;;;;;-145.14;100.00;70583.66;5008116;28;20462;-72
2023/08/15 05:20:16;;;;;;;9.40;6.53;;;;;;;-145.14;100.00;70583.66;5007672;28;20496;-72
2023/08/15 05:22:42;;;;;;;10.03;7.80;;;;;;;-145.14;100.00;70583.66;5007994;28;20669;-72
2023/08/15 05:25:08;;;;;;;11.43;7.93;;;;;;;-145.14;100.00;70583.66;5010248;28;20253;-72
2023/08/15 05:27:33;;;;;;;11.77;9.63;;;;;;;-145.14;100.00;70583.66;5008699;28;20676;-71
2023/08/15 05:29:59;;;;;;;12.53;8.80;;;;;;;-145.14;100.00;70583.66;5006628;28;20472;-72
2023/08/15 05:32:24;;;;;;;11.53;8.63;;;;;;;-145.14;100.00;70583.66;5008458;28;20193;-72
2023/08/15 05:34:50;;;;;;;12.37;8.77;;;;;;;-145.14;100.00;70583.66;5009601;28;20592;-71
2023/08/15 05:37:15;;;;;;;13.20;9.87;;;;;;;-145.14;100.00;70583.66;5007862;28;20426;-71
2023/08/15 05:39:40;;;;;;;13.50;8.57;;;;;;;-145.14;100.00;70583.66;5010343;28;20211;-72
2023/08/15 05:42:06;;;;;;;10.50;8.27;;;;;;;-145.14;100.00;70583.66;5009262;28;20555;-71
2023/08/15 05:44:31;;;;;;;13.23;9.60;;;;;;;-145.14;100.00;70583.66;5009725;28;20920;-71
2023/08/15 05:46:57;;;;;;;13.30;10.43;;;;;;;-145.14;100.00;70583.66;5009046;28;20212;-71
2023/08/15 05:49:22;;;;;;;13.93;9.67;;;;;;;-145.14;100.00;70583.66;5007095;28;20216;-71
2023/08/15 05:51:48;;;;;;;11.03;8.23;;;;;;;-145.14;100.00;70583.66;5009472;28;20193;-71
2023/08/15 05:54:13;;;;;;;10.63;8.80;;;;;;;-145.14;100.00;70583.66;5018796;28;20687;-71
2023/08/15 05:56:40;;;;;;;13.50;10.37;;;;;;;-145.14;100.00;70583.66;5008159;28;20213;-71
2023/08/15 05:59:05;;;;;;;14.13;9.23;;;;;;;-145.14;100.00;70583.66;5008271;28;20281;-71
2023/08/15 06:01:31;;;;;;;11.63;9.53;;;;;;;-145.14;100.00;70583.66;5009088;28;20541;-71
2023/08/15 06:03:56;;;;;;;15.23;9.40;;;;;;;-145.14;100.00;70583.66;5009851;28;20241;-72
2023/08/15 06:06:23;;;;;;;10.80;9.60;;;;;;;-145.14;100.00;70583.66;5009457;28;20214;-73
2023/08/15 06:08:48;;;;;;;10.73;8.33;;;;;;;-145.14;100.00;70583.66;5006779;28;20223;-73
2023/08/15 06:11:15;;;;;;;10.17;8.57;;;;;;;-145.14;100.00;70583.66;5006976;28;20436;-72
2023/08/15 06:13:40;;;;;;;10.90;7.43;;;;;;;-145.14;100.00;70583.66;5008139;28;20246;-72
2023/08/15 06:16:06;;;;;;;12.33;9.10;;;;;;;-145.14;100.00;70583.66;5010842;28;20452;-72
2023/08/15 06:18:31;;;;;;;11.67;7.90;;;;;;;-145.14;100.00;70583.66;5013801;28;20185;-73
2023/08/15 06:20:57;;;;;;;9.83;8.40;;;;;;;-145.14;100.00;70583.66;5011899;28;20201;-73
2023/08/15 06:23:22;;;;;;;14.73;8.10;;;;;;;-145.14;100.00;70583.66;5010281;28;20285;-73
2023/08/15 06:25:47;;;;;;;12.77;8.80;;;;;;;-145.14;100.00;70583.66;5012164;28;20191;-73
2023/08/15 06:28:13;;;;;;;8.67;7.37;;;;;;;-145.14;100.00;70583.66;5010978;28;20227;-73
2023/08/15 06:30:42;;;;;;;12.87;7.90;;;;;;;-145.14;100.00;70583.66;5013326;28;20197;-73
2023/08/15 06:33:07;;;;;;;14.73;7.07;;;;;;;-145.14;100.00;70583.66;5014235;28;20231;-73
2023/08/15 06:35:32;;;;;;;10.73;6.50;;;;;;;-145.14;100.00;70583.66;5011835;28;20483;-72
2023/08/15 06:37:58;;;;;;;13.83;6.00;;;;;;;-145.14;100.00;70583.66;5008876;28;20204;-73
2023/08/15 06:40:23;;;;;;;11.27;5.33;;;;;;;-145.14;100.00;70583.66;5012519;28;20192;-73
2023/08/15 06:42:49;;;;;;;11.10;5.60;;;;;;;-145.14;100.00;70583.66;5011172;28;20193;-73
2023/08/15 06:45:16;;;;;;;11.60;5.30;;;;;;;-145.14;100.00;70583.66;5012590;28;20197;-73
2023/08/15 06:47:42;;;;;;;9.53;5.40;;;;;;;-145.14;100.00;70583.66;5013126;28;20208;-73
2023/08/15 06:50:08;;;;;;;10.70;4.90;;;;;;;-145.14;100.00;70583.66;5012141;28;20557;-73
2023/08/15 06:52:34;;;;;;;11.30;5.63;;;;;;;-145.14;100.00;70583.66;5021944;28;20439;-73
2023/08/15 06:55:03;;;;;;;9.53;4.83;;;;;;;-145.14;100.00;70583.66;5010456;28;20517;-73
2023/08/15 06:57:29;;;;;;;7.13;4.00;;;;;;;-145.14;100.00;70583.66;5011113;28;20474;-73
2023/08/15 06:59:54;;;;;;;7.87;3.93;;;;;;;-145.14;100.00;70583.66;5010992;28;20447;-73
2023/08/15 07:02:20;;;;;;;6.07;3.33;;;;;;;-145.14;100.00;70583.66;5011429;28;20960;-73
2023/08/15 07:04:48;;;;;;;7.70;3.93;;;;;;;-145.14;100.00;70583.66;5005091;28;20994;-73
2023/08/15 07:07:13;;;;;;;10.20;4.73;;;;;;;-145.14;100.00;70583.66;5011599;28;20200;-73
2023/08/15 07:09:39;;;;;;;7.00;3.80;;;;;;;-145.14;100.00;70583.66;5013124;28;20526;-73
2023/08/15 07:12:07;;;;;;;8.87;4.10;;;;;;;-145.14;100.00;70583.66;5012119;28;20191;-73
2023/08/15 07:14:33;;;;;;;7.20;4.17;;;;;;;-145.14;100.00;70583.66;5009918;28;20196;-73
2023/08/15 07:16:59;;;;;;;8.23;3.83;;;;;;;-145.14;100.00;70583.66;5013129;28;20463;-73
2023/08/15 07:19:24;;;;;;;7.00;4.63;;;;;;;-145.14;100.00;70583.66;5011915;28;20638;-73
2023/08/15 07:21:49;;;;;;;8.90;4.43;;;;;;;-145.14;100.00;70583.66;5010022;28;20193;-71
2023/08/15 07:24:18;;;;;;;11.43;4.37;;;;;;;-145.14;100.00;70583.66;5020425;28;20200;-73
2023/08/15 07:26:45;;;;;;;7.67;3.43;;;;;;;-145.14;100.00;70583.66;5016091;28;20651;-73
2023/08/15 07:29:13;;;;;;;8.20;3.80;;;;;;;-145.14;100.00;70583.66;5009477;28;20500;-72
2023/08/15 07:31:39;;;;;;;5.43;3.00;;;;;;;-145.14;100.00;70583.66;5016124;28;20949;-72
2023/08/15 07:34:04;;;;;;;6.60;3.80;;;;;;;-145.14;100.00;70583.66;5010118;28;20502;-72
2023/08/15 07:36:30;;;;;;;6.47;2.87;;;;;;;-145.14;100.00;70583.66;5009507;28;20239;-72
2023/08/15 07:38:56;;;;;;;5.23;2.53;;;;;;;-145.14;100.00;70583.66;5019368;28;20210;-73
2023/08/15 07:41:21;;;;;;;6.30;2.77;;;;;;;-145.14;100.00;70583.66;5011525;28;20944;-72
2023/08/15 07:43:47;;;;;;;8.50;3.40;;;;;;;-145.14;100.00;70583.66;5012040;28;20225;-73
2023/08/15 07:46:12;;;;;;;6.90;3.00;;;;;;;-145.14;100.00;70583.66;5005889;28;20227;-72
2023/08/15 07:48:38;;;;;;;9.70;2.63;;;;;;;-145.14;100.00;70583.66;5021014;28;20216;-72
2023/08/15 07:51:03;;;;;;;5.73;2.40;;;;;;;-145.14;100.00;70583.66;5012407;28;20185;-72
2023/08/15 07:53:30;;;;;;;6.27;2.07;;;;;;;-145.14;100.00;70583.66;5012673;28;20188;-72
2023/08/15 07:55:55;;;;;;;6.83;2.43;;;;;;;-145.14;100.00;70583.66;5011692;28;20192;-72
2023/08/15 07:58:21;;;;;;;6.73;2.33;;;;;;;-145.14;100.00;70583.66;5011205;28;20450;-72
2023/08/15 08:00:46;;;;;;;8.00;2.60;;;;;;;-145.14;100.00;70583.66;5011089;28;20284;-72
2023/08/15 08:03:12;;;;;;;7.03;3.43;;;;;;;-145.14;100.00;70583.66;5011044;28;20192;-71
2023/08/15 08:05:37;;;;;;;13.03;3.23;;;;;;;-145.14;100.00;70583.66;5007844;28;20552;-73
2023/08/15 08:08:03;;;;;;;6.37;2.23;;;;;;;-145.14;100.00;70583.66;5007604;28;20243;-71
2023/08/15 08:10:29;;;;;;;6.50;2.47;;;;;;;-145.14;100.00;70583.66;5009441;28;20200;-72
2023/08/15 08:12:54;;;;;;;6.03;3.00;;;;;;;-145.14;100.00;70583.66;5009353;28;20191;-72
2023/08/15 08:15:23;;;;;;;6.40;2.77;;;;;;;-145.14;100.00;70583.66;5010145;28;20193;-72
2023/08/15 08:17:49;;;;;;;5.80;2.60;;;;;;;-145.14;100.00;70583.66;5017428;28;20212;-72
2023/08/15 08:20:16;;;;;;;10.40;3.60;;;;;;;-145.14;100.00;70583.66;5017037;28;20512;-73
2023/08/15 08:22:42;;;;;;;9.23;3.17;;;;;;;-145.14;100.00;70583.66;5010402;28;20466;-72
2023/08/15 08:25:17;;;;;;;8.80;3.50;;;;;;;-145.14;100.00;70583.66;5012777;28;20583;-72
2023/08/15 08:27:44;;;;;;;6.60;3.60;;;;;;;-145.14;100.00;70583.66;5006231;28;20216;-72
2023/08/15 08:30:10;;;;;;;7.60;3.00;;;;;;;-145.14;100.00;70583.66;5006739;28;20549;-72
2023/08/15 08:32:36;;;;;;;8.27;4.43;;;;;;;-145.14;100.00;70583.66;5008616;28;20440;-72
2023/08/15 08:35:01;;;;;;;6.53;3.27;;;;;;;-145.14;100.00;70583.66;5007446;28;20906;-72
2023/08/15 08:37:27;;;;;;;10.80;3.77;;;;;;;-145.14;100.00;70583.66;5005303;28;20243;-72
2023/08/15 08:39:52;;;;;;;9.10;2.97;;;;;;;-145.14;100.00;70583.66;5009032;28;20188;-73
2023/08/15 08:42:18;;;;;;;7.57;2.93;;;;;;;-145.14;100.00;70583.66;5009529;28;20189;-70
2023/08/15 08:44:46;;;;;;;7.23;2.50;;;;;;;-145.14;100.00;70583.66;5008717;28;20213;-72
2023/08/15 08:47:12;;;;;;;6.33;1.93;;;;;;;-145.14;100.00;70583.66;5004368;28;20208;-73
2023/08/15 08:49:41;;;;;;;8.17;3.30;;;;;;;-145.14;100.00;70583.66;5011009;28;20987;-72
2023/08/15 08:52:07;;;;;;;9.10;3.17;;;;;;;-145.14;100.00;70583.66;5010959;28;20967;-72
2023/08/15 08:54:33;;;;;;;9.17;2.90;;;;;;;-145.14;100.00;70583.66;5020000;28;20432;-72
2023/08/15 08:56:59;;;;;;;5.90;2.47;;;;;;;-145.14;100.00;70583.66;5010175;28;20454;-73
2023/08/15 08:59:25;;;;;;;11.30;3.13;;;;;;;-145.14;100.00;70583.66;5008112;28;20193;-72
2023/08/15 09:01:52;;;;;;;5.90;2.60;;;;;;;-145.14;100.00;70583.66;5010050;28;20514;-72
2023/08/15 09:04:20;;;;;;;4.67;2.03;;;;;;;-145.14;100.00;70583.66;5009690;28;20196;-73
2023/08/15 09:06:46;;;;;;;8.70;3.23;;;;;;;-145.14;100.00;70583.66;5006327;28;20506;-72
2023/08/15 09:09:12;;;;;;;7.90;2.60;;;;;;;-145.14;100.00;70583.66;5009156;28;20472;-72
2023/08/15 09:11:37;;;;;;;10.63;2.93;;;;;;;-145.14;100.00;70583.66;5010195;28;20449;-73
2023/08/15 09:14:04;;;;;;;4.00;2.17;;;;;;;-145.14;100.00;70583.66;5010441;28;20185;-72
2023/08/15 09:16:31;;;;;;;5.53;2.20;;;;;;;-145.14;100.00;70583.66;5007132;28;20269;-72
2023/08/15 09:18:59;;;;;;;7.10;3.10;;;;;;;-145.14;100.00;70583.66;5009159;28;20713;-72
2023/08/15 09:21:27;;;;;;;6.43;2.33;;;;;;;-145.14;100.00;70583.66;5008427;28;20452;-71
2023/08/15 09:23:52;;;;;;;6.73;2.43;;;;;;;-145.14;100.00;70583.66;5008698;28;20443;-72
2023/08/15 09:26:18;;;;;;;6.37;2.50;;;;;;;-145.14;100.00;70583.66;5007156;28;21070;-72
2023/08/15 09:28:45;;;;;;;6.70;2.27;;;;;;;-145.14;100.00;70583.66;5007163;28;20247;-72
2023/08/15 09:31:11;;;;;;;6.73;2.20;;;;;;;-145.14;100.00;70583.66;5009032;28;20197;-72
2023/08/15 09:33:37;;;;;;;8.80;2.53;;;;;;;-145.14;100.00;70583.66;5004921;28;20494;-71
2023/08/15 09:36:05;;;;;;;5.33;2.70;;;;;;;-145.14;100.00;70583.66;5007521;28;20550;-72
2023/08/15 09:38:31;;;;;;;7.00;2.47;;;;;;;-145.14;100.00;70583.66;5005839;28;20440;-72
2023/08/15 09:40:57;;;;;;;7.83;2.83;;;;;;;-145.14;100.00;70583.66;5010870;28;20498;-72
2023/08/15 09:43:22;;;;;;;5.07;1.70;;;;;;;-145.14;100.00;70583.66;5010108;28;20192;-72
2023/08/15 09:45:51;;;;;;;3.13;1.23;;;;;;;-145.14;100.00;70583.66;5012964;28;20500;-72
2023/08/15 09:48:18;;;;;;;7.27;1.77;;;;;;;-145.14;100.00;70583.66;5009839;28;20210;-72
2023/08/15 09:50:44;;;;;;;6.60;1.90;;;;;;;-145.14;100.00;70583.66;5007881;28;20865;-72
2023/08/15 09:53:10;;;;;;;6.80;2.27;;;;;;;-145.14;100.00;70583.66;5008631;28;20525;-72
2023/08/15 09:55:36;;;;;;;5.67;1.97;;;;;;;-145.14;100.00;70583.66;5006799;28;20438;-72
2023/08/15 09:58:03;;;;;;;9.47;1.90;;;;;;;-145.14;100.00;70583.66;5012090;28;20213;-71
2023/08/15 10:00:29;;;;;;;6.87;1.53;;;;;;;-145.14;100.00;70583.66;5003230;28;20518;-75
2023/08/15 10:02:58;;;;;;;5.27;1.73;;;;;;;-145.14;100.00;70583.66;5010879;28;20472;-71
2023/08/15 10:05:27;;;;;;;6.53;1.70;;;;;;;-145.14;100.00;70583.66;5003636;28;20451;-72
2023/08/15 10:07:53;;;;;;;5.83;1.33;;;;;;;-145.14;100.00;70583.66;5007247;28;20492;-71
2023/08/15 10:10:19;;;;;;;5.50;1.57;;;;;;;-145.14;100.00;70583.66;5005645;28;20507;-73
2023/08/15 10:12:46;;;;;;;4.40;1.63;;;;;;;-145.14;100.00;70583.66;5007289;28;20184;-72
2023/08/15 10:15:13;;;;;;;6.63;2.03;;;;;;;-145.14;100.00;70583.66;5007703;28;20470;-72
2023/08/15 10:17:39;;;;;;;7.17;1.80;;;;;;;-145.14;100.00;70583.66;5009107;28;20590;-71
2023/08/15 10:20:05;;;;;;;4.47;1.40;;;;;;;-145.14;100.00;70583.66;5011091;28;20522;-71
2023/08/15 10:22:33;;;;;;;6.63;1.37;;;;;;;-145.14;100.00;70583.66;5008531;28;20476;-72
2023/08/15 10:25:34;;;;;;;6.93;1.80;;;;;;;-145.14;100.00;70583.66;5006389;28;20498;-71
2023/08/15 10:28:02;;;;;;;3.50;1.20;;;;;;;-145.14;100.00;70583.66;5004169;28;20537;-71
2023/08/15 10:30:40;;;;;;;4.00;1.10;;;;;;;-145.14;100.00;70583.66;5009344;28;20553;-72
2023/08/15 10:33:15;;;;;;;6.80;1.70;;;;;;;-145.14;100.00;70583.66;5013960;28;21117;-71
2023/08/15 10:35:56;;;;;;;5.10;1.77;;;;;;;-145.14;100.00;70583.66;5005864;28;20831;-71
2023/08/15 10:38:25;;;;;;;5.70;1.43;;;;;;;-145.14;100.00;70583.66;5004746;28;20536;-71
2023/08/15 10:40:52;;;;;;;4.80;1.47;;;;;;;-145.14;100.00;70583.66;5008751;28;20553;-71
2023/08/15 10:43:17;;;;;;;4.50;1.53;;;;;;;-145.14;100.00;70583.66;5007613;28;20473;-71
2023/08/15 10:45:52;;;;;;;6.97;1.87;;;;;;;-145.14;100.00;70583.66;5004636;28;20947;-71
2023/08/15 10:48:44;;;;;;;4.80;1.47;;;;;;;-145.14;100.00;70583.66;5005960;28;20258;-70
2023/08/15 10:51:20;;;;;;;7.43;1.53;;;;;;;-145.14;100.00;70583.66;5007741;28;21009;-71
2023/08/15 10:53:50;;;;;;;3.80;1.50;;;;;;;-145.14;100.00;70583.66;5016977;28;20693;-70
2023/08/15 10:56:18;;;;;;;4.03;1.57;;;;;;;-145.14;100.00;70583.66;5006100;28;20467;-71
2023/08/15 10:58:46;;;;;;;3.73;1.33;;;;;;;-145.14;100.00;70583.66;5003308;28;20510;-71
2023/08/15 11:01:15;;;;;;;4.33;1.30;;;;;;;-145.14;100.00;70583.66;5008554;28;20630;-71
2023/08/15 11:03:42;;;;;;;6.53;1.70;;;;;;;-145.14;100.00;70583.66;5016869;28;20444;-71